createdAt,value
2019-01-03T00:01:42.277Z,0.30
2019-01-03T00:04:30.660Z,0.30
2019-01-03T00:07:23.328Z,0.30
2019-01-03T00:10:25.361Z,0.30
2019-01-03T00:13:14.636Z,0.20
2019-01-03T00:16:07.901Z,0.20
2019-01-03T00:19:09.986Z,0.10
2019-01-03T00:22:06.712Z,0.10
2019-01-03T00:24:53.797Z,0.10
2019-01-03T00:27:42.713Z,0.10
2019-01-03T00:30:41.895Z,0.20
2019-01-03T00:33:37.171Z,0.20
2019-01-03T00:36:25.471Z,0.20
2019-01-03T00:39:21.656Z,0.20
2019-01-03T00:42:13.197Z,0.20
2019-01-03T00:45:01.831Z,0.20
2019-01-03T00:47:57.627Z,0.20
2019-01-03T00:50:40.682Z,0.20
2019-01-03T00:53:31.286Z,0.50
2019-01-03T00:56:30.039Z,0.40
2019-01-03T00:59:25.775Z,0.30
2019-01-03T01:02:14.275Z,0.30
2019-01-03T01:05:03.203Z,0.20
2019-01-03T01:07:46.111Z,0.20
2019-01-03T01:10:35.997Z,0.30
2019-01-03T01:13:34.853Z,0.20
2019-01-03T01:16:27.612Z,0.10
2019-01-03T01:19:20.229Z,0.10
2019-01-03T01:22:10.668Z,0.20
2019-01-03T01:25:12.499Z,0.10
2019-01-03T01:28:00.897Z,0.10
2019-01-03T01:30:59.999Z,0.10
2019-01-03T01:33:49.941Z,0.00
2019-01-03T01:36:51.757Z,0.00
2019-01-03T01:39:40.294Z,-0.10
2019-01-03T01:42:28.852Z,0.00
2019-01-03T01:45:18.771Z,0.00
2019-01-03T01:48:08.222Z,0.00
2019-01-03T01:51:07.075Z,0.10
2019-01-03T01:53:55.689Z,0.10
2019-01-03T01:56:42.779Z,0.10
2019-01-03T01:59:34.727Z,0.00
2019-01-03T02:02:29.193Z,0.00
2019-01-03T02:05:17.885Z,0.10
2019-01-03T02:08:06.166Z,0.20
2019-01-03T02:10:55.263Z,0.10
2019-01-03T02:13:45.227Z,0.00
2019-01-03T02:16:33.717Z,-0.10
2019-01-03T02:19:21.996Z,-0.20
2019-01-03T02:22:10.745Z,-0.10
2019-01-03T02:24:59.455Z,-0.10
2019-01-03T02:27:59.422Z,-0.20
2019-01-03T02:30:52.874Z,-0.20
2019-01-03T02:33:41.568Z,-0.30
2019-01-03T02:36:28.391Z,-0.30
2019-01-03T02:39:28.053Z,-0.30
2019-01-03T02:42:16.255Z,-0.10
2019-01-03T02:45:18.149Z,0.10
2019-01-03T02:48:16.946Z,0.10
2019-01-03T02:51:09.651Z,0.10
2019-01-03T02:53:58.204Z,0.00
2019-01-03T02:56:42.178Z,-0.10
2019-01-03T02:59:30.787Z,-0.20
2019-01-03T03:02:14.429Z,-0.30
2019-01-03T03:05:13.172Z,-0.30
2019-01-03T03:07:51.763Z,-0.30
2019-01-03T03:10:44.997Z,-0.40
2019-01-03T03:13:33.373Z,-0.50
2019-01-03T03:16:24.729Z,-0.40
2019-01-03T03:19:09.725Z,-0.50
2019-01-03T03:22:00.758Z,-0.40
2019-01-03T03:24:50.677Z,-0.30
2019-01-03T03:27:40.730Z,-0.40
2019-01-03T03:30:29.491Z,-0.50
2019-01-03T03:33:32.407Z,-0.60
2019-01-03T03:36:22.296Z,-0.70
2019-01-03T03:39:10.661Z,-0.60
2019-01-03T03:41:59.588Z,-0.40
2019-01-03T03:44:41.205Z,-0.30
2019-01-03T03:47:18.911Z,-0.20
2019-01-03T03:50:07.281Z,-0.40
2019-01-03T03:52:57.150Z,-0.50
2019-01-03T03:55:45.752Z,-0.60
2019-01-03T03:58:30.891Z,-0.60
2019-01-03T04:01:19.112Z,-0.70
2019-01-03T04:04:05.760Z,-0.80
2019-01-03T04:06:54.111Z,-0.80
2019-01-03T04:09:53.000Z,-0.90
2019-01-03T04:12:45.764Z,-0.80
2019-01-03T04:15:43.940Z,-0.70
2019-01-03T04:18:37.734Z,-0.70
2019-01-03T04:21:26.239Z,-0.80
2019-01-03T04:24:31.286Z,-0.90
2019-01-03T04:27:26.967Z,-0.90
2019-01-03T04:30:23.848Z,-1.00
2019-01-03T04:33:12.161Z,-1.00
2019-01-03T04:36:05.191Z,-1.10
2019-01-03T04:38:47.510Z,-1.10
2019-01-03T04:41:29.095Z,-1.20
2019-01-03T04:44:14.059Z,-1.20
2019-01-03T04:47:16.453Z,-1.30
2019-01-03T04:50:15.536Z,-1.20
2019-01-03T04:53:04.928Z,-1.00
2019-01-03T04:55:53.086Z,-1.00
2019-01-03T04:58:36.935Z,-1.00
2019-01-03T05:02:01.478Z,-1.10
2019-01-03T05:04:57.640Z,-1.20
2019-01-03T05:07:47.288Z,-1.20
2019-01-03T05:10:30.422Z,-1.30
2019-01-03T05:13:20.301Z,-1.30
2019-01-03T05:16:12.974Z,-1.20
2019-01-03T05:19:01.458Z,-1.00
2019-01-03T05:22:01.934Z,-1.00
2019-01-03T05:24:50.393Z,-1.10
2019-01-03T05:27:42.884Z,-1.10
2019-01-03T05:30:26.786Z,-1.10
2019-01-03T05:33:18.480Z,-1.10
2019-01-03T05:36:11.529Z,-1.20
2019-01-03T05:38:59.978Z,-1.20
2019-01-03T05:41:50.017Z,-1.20
2019-01-03T05:44:45.661Z,-1.20
2019-01-03T05:47:40.674Z,-1.30
2019-01-03T05:50:29.750Z,-1.30
2019-01-03T05:53:18.272Z,-1.30
2019-01-03T05:56:06.865Z,-1.30
2019-01-03T05:58:55.551Z,-1.30
2019-01-03T06:01:53.073Z,-1.20
2019-01-03T06:04:44.675Z,-1.30
2019-01-03T06:07:33.027Z,-1.30
2019-01-03T06:10:21.795Z,-1.30
2019-01-03T06:13:25.154Z,-1.20
2019-01-03T06:16:21.782Z,-1.20
2019-01-03T06:19:10.319Z,-1.20
2019-01-03T06:22:15.155Z,-1.30
2019-01-03T06:25:11.244Z,-1.40
2019-01-03T06:27:59.880Z,-1.40
2019-01-03T06:30:48.618Z,-1.50
2019-01-03T06:33:45.205Z,-1.50
2019-01-03T06:36:36.341Z,-1.50
2019-01-03T06:39:29.705Z,-1.50
2019-01-03T06:42:18.331Z,-1.30
2019-01-03T06:45:06.804Z,-1.40
2019-01-03T06:48:09.569Z,-1.50
2019-01-03T06:51:02.823Z,-1.50
2019-01-03T06:54:10.881Z,-1.50
2019-01-03T06:57:12.575Z,-1.40
2019-01-03T07:00:01.410Z,-1.50
2019-01-03T07:02:57.353Z,-1.50
2019-01-03T07:05:45.823Z,-1.40
2019-01-03T07:08:48.149Z,-1.50
2019-01-03T07:11:36.672Z,-1.50
2019-01-03T07:14:26.935Z,-1.60
2019-01-03T07:17:15.511Z,-1.50
2019-01-03T07:20:08.207Z,-1.60
2019-01-03T07:22:56.959Z,-1.50
2019-01-03T07:25:45.891Z,-1.60
2019-01-03T07:28:41.157Z,-1.60
2019-01-03T07:31:29.491Z,-1.60
2019-01-03T07:34:18.026Z,-1.50
2019-01-03T07:37:06.890Z,-1.40
2019-01-03T07:39:52.854Z,-1.30
2019-01-03T07:42:57.747Z,-1.20
2019-01-03T07:45:59.919Z,-1.20
2019-01-03T07:48:48.270Z,-1.20
2019-01-03T07:51:39.968Z,-1.30
2019-01-03T07:54:32.192Z,-1.30
2019-01-03T07:57:37.052Z,-1.10
2019-01-03T08:03:54.313Z,-1.00
2019-01-03T08:06:56.146Z,-0.70
2019-01-03T08:09:49.776Z,-0.60
2019-01-03T08:12:43.678Z,-0.10
2019-01-03T08:15:51.611Z,-0.10
2019-01-03T08:18:48.779Z,0.00
2019-01-03T08:21:39.175Z,0.10
2019-01-03T08:24:57.560Z,0.20
2019-01-03T08:27:56.206Z,0.20
2019-01-03T08:30:48.541Z,0.10
2019-01-03T08:33:44.187Z,0.10
2019-01-03T08:40:23.738Z,0.20
2019-01-03T08:43:27.167Z,0.20
2019-01-03T08:46:32.814Z,0.30
2019-01-03T08:49:23.178Z,0.20
2019-01-03T08:52:12.530Z,0.20
2019-01-03T08:58:45.919Z,0.20
2019-01-03T09:01:36.515Z,0.30
2019-01-03T09:08:16.176Z,0.40
2019-01-03T09:12:10.791Z,0.40
2019-01-03T09:15:02.517Z,0.40
2019-01-03T09:18:09.586Z,0.60
2019-01-03T09:21:30.520Z,0.70
2019-01-03T09:24:41.320Z,0.80
2019-01-03T09:27:33.380Z,1.00
2019-01-03T09:30:26.688Z,1.00
2019-01-03T09:34:04.310Z,1.10
2019-01-03T09:36:57.725Z,1.20
2019-01-03T09:39:50.688Z,1.20
2019-01-03T09:42:49.831Z,1.30
2019-01-03T09:45:24.128Z,1.40
2019-01-03T09:47:55.222Z,1.40
2019-01-03T09:50:32.234Z,1.50
2019-01-03T09:53:04.748Z,1.50
2019-01-03T09:55:46.940Z,1.60
2019-01-03T09:58:22.939Z,1.60
2019-01-03T10:00:56.649Z,1.60
2019-01-03T10:03:33.221Z,1.70
2019-01-03T10:06:08.572Z,1.90
2019-01-03T10:08:46.743Z,1.90
2019-01-03T10:11:18.129Z,1.90
2019-01-03T10:13:49.527Z,2.00
2019-01-03T10:16:20.802Z,2.10
2019-01-03T10:19:00.986Z,2.10
2019-01-03T10:21:43.990Z,2.20
2019-01-03T10:25:03.541Z,2.30
2019-01-03T10:30:35.641Z,2.30
2019-01-03T10:33:25.596Z,2.40
2019-01-03T10:35:56.985Z,2.50
2019-01-03T10:38:28.341Z,2.60
2019-01-03T10:40:59.235Z,2.60
2019-01-03T10:43:30.172Z,2.50
2019-01-03T10:46:01.080Z,2.50
2019-01-03T10:49:04.763Z,2.50
2019-01-03T10:51:37.668Z,2.50
2019-01-03T10:54:35.131Z,2.60
2019-01-03T10:57:09.079Z,2.60
2019-01-03T10:59:40.021Z,2.60
2019-01-03T11:02:11.083Z,2.70
2019-01-03T11:04:42.190Z,2.80
2019-01-03T11:07:13.325Z,2.80
2019-01-03T11:09:45.687Z,2.90
2019-01-03T11:12:17.722Z,2.90
2019-01-03T11:14:48.890Z,2.90
2019-01-03T11:17:19.783Z,2.90
2019-01-03T11:19:51.799Z,2.90
2019-01-03T11:22:22.830Z,3.00
2019-01-03T11:24:53.820Z,3.10
2019-01-03T11:27:25.290Z,3.20
2019-01-03T11:29:59.275Z,3.20
2019-01-03T11:32:31.299Z,3.10
2019-01-03T11:35:02.457Z,3.20
2019-01-03T11:37:33.482Z,3.20
2019-01-03T11:40:05.433Z,3.30
2019-01-03T11:42:36.570Z,3.30
2019-01-03T11:45:07.936Z,3.20
2019-01-03T11:47:38.953Z,3.20
2019-01-03T11:50:10.883Z,3.20
2019-01-03T11:52:41.746Z,3.20
2019-01-03T11:55:12.809Z,3.30
2019-01-03T11:57:43.723Z,3.40
2019-01-03T12:00:14.699Z,3.50
2019-01-03T12:02:45.565Z,3.70
2019-01-03T12:05:16.431Z,3.80
2019-01-03T12:07:47.537Z,3.80
2019-01-03T12:10:18.546Z,3.90
2019-01-03T12:12:50.329Z,3.90
2019-01-03T12:15:23.081Z,4.00
2019-01-03T12:17:54.038Z,4.00
2019-01-03T12:20:24.924Z,4.10
2019-01-03T12:22:56.153Z,4.20
2019-01-03T12:25:27.078Z,4.20
2019-01-03T12:28:00.363Z,4.20
2019-01-03T12:30:31.573Z,4.20
2019-01-03T12:33:02.623Z,4.10
2019-01-03T12:35:33.622Z,4.10
2019-01-03T12:38:04.540Z,4.00
2019-01-03T12:40:38.285Z,4.00
2019-01-03T12:43:09.386Z,3.90
2019-01-03T12:45:40.587Z,3.90
2019-01-03T12:48:14.154Z,3.90
2019-01-03T12:50:46.503Z,3.80
2019-01-03T12:53:17.489Z,3.80
2019-01-03T12:55:49.413Z,3.90
2019-01-03T12:58:20.320Z,3.90
2019-01-03T13:00:51.229Z,3.90
2019-01-03T13:03:22.244Z,3.80
2019-01-03T13:05:53.255Z,3.80
2019-01-03T13:08:24.181Z,3.90
2019-01-03T13:10:55.365Z,3.90
2019-01-03T13:13:26.356Z,3.90
2019-01-03T13:16:00.196Z,3.90
2019-01-03T13:21:37.717Z,3.90
2019-01-03T13:24:46.324Z,4.00
2019-01-03T13:27:47.696Z,4.00
2019-01-03T13:30:51.919Z,4.00
2019-01-03T13:33:47.150Z,4.10
2019-01-03T13:36:20.850Z,4.00
2019-01-03T13:38:52.450Z,3.90
2019-01-03T13:41:23.683Z,3.90
2019-01-03T13:43:54.816Z,3.90
2019-01-03T13:46:26.589Z,3.80
2019-01-03T13:48:58.182Z,3.80
2019-01-03T13:51:29.600Z,3.80
2019-01-03T13:54:02.098Z,3.90
2019-01-03T13:56:39.334Z,3.90
2019-01-03T13:59:14.076Z,3.80
2019-01-03T14:01:45.990Z,3.70
2019-01-03T14:04:18.845Z,3.70
2019-01-03T14:06:50.573Z,3.70
2019-01-03T14:09:22.231Z,3.50
2019-01-03T14:11:53.633Z,3.50
2019-01-03T14:14:25.162Z,3.40
2019-01-03T14:17:00.116Z,3.40
2019-01-03T14:19:30.448Z,3.40
2019-01-03T14:22:02.232Z,3.40
2019-01-03T14:24:33.402Z,3.30
2019-01-03T14:27:10.750Z,3.30
2019-01-03T14:29:41.812Z,3.20
2019-01-03T14:32:12.864Z,3.20
2019-01-03T14:34:44.768Z,3.20
2019-01-03T14:37:17.066Z,3.20
2019-01-03T14:39:48.251Z,3.20
2019-01-03T14:42:20.340Z,3.10
2019-01-03T14:44:51.596Z,3.10
2019-01-03T14:47:23.123Z,3.00
2019-01-03T14:49:54.595Z,3.00
2019-01-03T14:52:25.890Z,3.00
2019-01-03T14:54:57.757Z,2.90
2019-01-03T14:57:29.185Z,2.90
2019-01-03T15:00:01.258Z,2.90
2019-01-03T15:02:33.176Z,2.90
2019-01-03T15:05:05.298Z,2.90
2019-01-03T15:07:38.300Z,2.90
2019-01-03T15:10:10.354Z,2.80
2019-01-03T15:12:42.423Z,2.80
2019-01-03T15:15:14.382Z,2.80
2019-01-03T15:17:48.946Z,2.70
2019-01-03T15:20:21.989Z,2.70
2019-01-03T15:22:53.442Z,2.80
2019-01-03T15:25:51.431Z,2.70
2019-01-03T15:28:35.614Z,2.70
2019-01-03T15:31:11.454Z,2.70
2019-01-03T15:33:43.124Z,2.70
2019-01-03T15:36:17.467Z,2.60
2019-01-03T15:38:51.746Z,2.60
2019-01-03T15:41:38.433Z,2.60
2019-01-03T15:44:21.284Z,2.60
2019-01-03T15:48:10.515Z,2.60
2019-01-03T15:50:53.896Z,2.50
2019-01-03T15:53:26.064Z,2.40
2019-01-03T15:59:41.692Z,2.40
2019-01-03T16:02:14.003Z,2.30
2019-01-03T16:04:45.405Z,2.40
2019-01-03T16:07:16.692Z,2.30
2019-01-03T16:09:47.969Z,2.30
2019-01-03T16:12:19.384Z,2.30
2019-01-03T16:14:51.829Z,2.30
2019-01-03T16:17:23.077Z,2.30
2019-01-03T16:19:54.215Z,2.30
2019-01-03T16:22:25.867Z,2.30
2019-01-03T16:24:56.899Z,2.30
2019-01-03T16:27:27.844Z,2.30
2019-01-03T16:29:58.774Z,2.30
2019-01-03T16:32:31.437Z,2.20
2019-01-03T16:35:04.172Z,2.20
2019-01-03T16:37:35.264Z,2.20
2019-01-03T16:40:08.022Z,2.10
2019-01-03T16:42:44.383Z,2.10
2019-01-03T16:45:15.622Z,2.10
2019-01-03T16:47:46.752Z,2.00
2019-01-03T16:50:18.908Z,2.00
2019-01-03T16:52:53.881Z,1.90
2019-01-03T16:55:25.026Z,1.90
2019-01-03T16:57:56.254Z,1.80
2019-01-03T17:00:27.616Z,1.80
2019-01-03T17:02:58.678Z,1.80
2019-01-03T17:05:29.785Z,1.80
2019-01-03T17:08:00.951Z,1.70
2019-01-03T17:10:32.194Z,1.70
2019-01-03T17:13:03.289Z,1.70
2019-01-03T17:15:34.493Z,1.70
2019-01-03T17:18:08.801Z,1.60
2019-01-03T17:20:39.927Z,1.50
2019-01-03T17:23:10.863Z,1.50
2019-01-03T17:25:41.975Z,1.50
2019-01-03T17:28:12.887Z,1.40
2019-01-03T17:30:43.813Z,1.50
2019-01-03T17:33:14.835Z,1.40
2019-01-03T17:35:46.013Z,1.40
2019-01-03T17:38:17.023Z,1.50
2019-01-03T17:40:48.092Z,1.40
2019-01-03T17:43:19.219Z,1.40
2019-01-03T17:45:50.458Z,1.40
2019-01-03T17:48:21.446Z,1.70
2019-01-03T17:50:52.734Z,1.60
2019-01-03T17:53:24.522Z,1.60
2019-01-03T17:55:55.609Z,1.60
2019-01-03T17:58:28.908Z,1.50
2019-01-03T18:01:06.257Z,1.50
2019-01-03T18:03:39.066Z,1.50
2019-01-03T18:06:10.187Z,1.50
2019-01-03T18:08:41.339Z,1.50
2019-01-03T18:11:14.728Z,1.60
2019-01-03T18:13:45.708Z,1.50
2019-01-03T18:16:20.532Z,1.40
2019-01-03T18:18:51.616Z,1.40
2019-01-03T18:21:22.724Z,1.40
2019-01-03T18:23:53.748Z,1.40
2019-01-03T18:26:24.755Z,1.40
2019-01-03T18:28:57.788Z,1.50
2019-01-03T18:31:28.746Z,1.50
2019-01-03T18:33:59.825Z,1.40
2019-01-03T18:36:30.767Z,1.40
2019-01-03T18:39:02.034Z,1.40
2019-01-03T18:41:35.923Z,1.40
2019-01-03T18:44:08.686Z,1.40
2019-01-03T18:46:42.794Z,1.20
2019-01-03T18:49:14.179Z,1.30
2019-01-03T18:51:45.400Z,1.30
2019-01-03T18:54:16.357Z,1.40
2019-01-03T18:56:47.374Z,1.40
2019-01-03T18:59:18.483Z,1.40
2019-01-03T19:01:52.440Z,1.30
2019-01-03T19:04:23.587Z,1.20
2019-01-03T19:06:54.763Z,1.20
2019-01-03T19:09:26.799Z,1.30
2019-01-03T19:11:57.661Z,1.30
2019-01-03T19:14:28.686Z,1.40
2019-01-03T19:16:59.857Z,1.30
2019-01-03T19:19:30.943Z,1.40
2019-01-03T19:22:01.939Z,1.30
2019-01-03T19:24:34.058Z,1.30
2019-01-03T19:27:05.285Z,1.40
2019-01-03T19:29:36.270Z,1.50
2019-01-03T19:32:07.289Z,1.50
2019-01-03T19:34:38.356Z,1.60
2019-01-03T19:37:09.437Z,1.50
2019-01-03T19:39:40.577Z,1.50
2019-01-03T19:42:11.702Z,1.50
2019-01-03T19:44:42.800Z,1.60
2019-01-03T19:47:13.950Z,1.60
2019-01-03T19:49:45.859Z,1.60
2019-01-03T19:52:17.312Z,1.50
2019-01-03T19:54:48.762Z,1.50
2019-01-03T19:57:22.930Z,1.40
2019-01-03T19:59:54.194Z,1.30
2019-01-03T20:02:25.883Z,1.40
2019-01-03T20:04:57.019Z,1.40
2019-01-03T20:07:28.258Z,1.30
2019-01-03T20:09:59.489Z,1.20
2019-01-03T20:12:30.658Z,1.20
2019-01-03T20:15:01.813Z,1.30
2019-01-03T20:17:34.588Z,1.30
2019-01-03T20:20:06.403Z,1.30
2019-01-03T20:22:38.603Z,1.40
2019-01-03T20:25:10.811Z,1.50
2019-01-03T20:27:41.949Z,1.50
2019-01-03T20:30:13.213Z,1.50
2019-01-03T20:32:47.334Z,1.40
2019-01-03T20:35:20.232Z,1.40
2019-01-03T20:37:53.134Z,1.30
2019-01-03T20:40:25.466Z,1.30
2019-01-03T20:42:59.133Z,1.40
2019-01-03T20:45:30.663Z,1.40
2019-01-03T20:48:01.915Z,1.40
2019-01-03T20:50:33.447Z,1.30
2019-01-03T20:53:07.584Z,1.30
2019-01-03T20:55:38.883Z,1.20
2019-01-03T20:58:10.157Z,1.20
2019-01-03T21:00:41.649Z,1.30
2019-01-03T21:03:12.763Z,1.30
2019-01-03T21:05:43.996Z,1.20
2019-01-03T21:08:15.053Z,1.30
2019-01-03T21:10:46.308Z,1.30
2019-01-03T21:13:20.176Z,1.30
2019-01-03T21:15:51.277Z,1.30
2019-01-03T21:18:22.494Z,1.50
2019-01-03T21:20:53.569Z,1.60
2019-01-03T21:23:24.713Z,1.70
2019-01-03T21:25:55.932Z,1.80
2019-01-03T21:28:28.301Z,1.90
2019-01-03T21:30:59.481Z,1.90
2019-01-03T21:33:31.194Z,1.80
2019-01-03T21:36:02.448Z,1.80
2019-01-03T21:38:33.838Z,1.70
2019-01-03T21:41:04.967Z,1.60
2019-01-03T21:43:36.551Z,1.70
2019-01-03T21:46:09.859Z,1.70
2019-01-03T21:48:41.129Z,1.70
2019-01-03T21:51:12.527Z,1.80
2019-01-03T21:53:43.739Z,1.70
2019-01-03T21:56:15.058Z,1.60
2019-01-03T21:58:46.281Z,1.60
2019-01-03T22:01:17.473Z,1.50
2019-01-03T22:03:48.655Z,1.50
2019-01-03T22:06:19.809Z,1.40
2019-01-03T22:08:50.755Z,1.60
2019-01-03T22:11:22.630Z,1.60
2019-01-03T22:13:54.383Z,1.80
2019-01-03T22:16:25.505Z,1.90
2019-01-03T22:18:56.524Z,1.80
2019-01-03T22:21:27.717Z,1.80
2019-01-03T22:23:59.155Z,1.70
2019-01-03T22:26:36.550Z,1.70
2019-01-03T22:29:07.622Z,1.60
2019-01-03T22:31:40.088Z,1.60
2019-01-03T22:34:11.939Z,1.70
2019-01-03T22:36:44.249Z,1.70
2019-01-03T22:39:15.522Z,1.60
2019-01-03T22:41:46.931Z,1.70
2019-01-03T22:44:17.901Z,1.70
2019-01-03T22:46:48.901Z,1.60
2019-01-03T22:49:20.097Z,1.60
2019-01-03T22:51:52.242Z,1.50
2019-01-03T22:54:23.194Z,1.40
2019-01-03T22:56:54.384Z,1.30
2019-01-03T22:59:25.411Z,1.40
2019-01-03T23:01:56.629Z,1.30
2019-01-03T23:04:27.575Z,1.30
2019-01-03T23:06:58.681Z,1.30
2019-01-03T23:09:29.675Z,1.30
2019-01-03T23:12:00.749Z,1.30
2019-01-03T23:14:31.789Z,1.20
2019-01-03T23:17:02.778Z,1.40
2019-01-03T23:19:33.761Z,1.60
2019-01-03T23:22:05.189Z,1.60
2019-01-03T23:24:37.377Z,1.70
2019-01-03T23:27:08.436Z,1.90
2019-01-03T23:29:39.662Z,1.80
2019-01-03T23:32:11.182Z,1.80
2019-01-03T23:34:42.063Z,1.90
2019-01-03T23:37:12.998Z,2.00
2019-01-03T23:39:44.379Z,1.90
2019-01-03T23:42:15.377Z,1.90
2019-01-03T23:45:15.310Z,2.10
2019-01-03T23:47:46.732Z,2.10
2019-01-03T23:50:21.223Z,2.20
2019-01-03T23:52:52.283Z,2.30
2019-01-03T23:55:25.835Z,2.30
2019-01-03T23:57:57.299Z,2.30
